createdAt,value
2017-01-08T00:00:27.492Z,0
2017-01-08T00:01:27.068Z,0
2017-01-08T00:02:27.436Z,0
2017-01-08T00:03:27.013Z,0
2017-01-08T00:04:27.008Z,0
2017-01-08T00:05:26.978Z,0
2017-01-08T00:06:27.341Z,0
2017-01-08T00:07:26.941Z,0
2017-01-08T00:08:27.303Z,0
2017-01-08T00:09:27.282Z,0
2017-01-08T00:10:26.879Z,0
2017-01-08T00:11:26.836Z,0
2017-01-08T00:12:26.850Z,0
2017-01-08T00:13:26.798Z,0
2017-01-08T00:14:26.762Z,0
2017-01-08T00:15:26.744Z,0
2017-01-08T00:16:26.716Z,0
2017-01-08T00:17:26.706Z,0
2017-01-08T00:18:26.673Z,0
2017-01-08T00:19:26.663Z,0
2017-01-08T00:20:26.648Z,0
2017-01-08T00:21:27.028Z,0
2017-01-08T00:22:26.590Z,0
2017-01-08T00:23:26.563Z,0
2017-01-08T00:24:26.544Z,0
2017-01-08T00:25:26.533Z,0
2017-01-08T00:26:26.506Z,0
2017-01-08T00:27:26.486Z,0
2017-01-08T00:28:26.453Z,0
2017-01-08T00:29:26.440Z,0
2017-01-08T00:30:26.415Z,0
2017-01-08T00:31:26.393Z,0
2017-01-08T00:32:26.349Z,0
2017-01-08T00:33:26.329Z,0
2017-01-08T00:34:26.306Z,0
2017-01-08T00:35:26.298Z,0
2017-01-08T00:36:26.251Z,0
2017-01-08T00:37:26.244Z,0
2017-01-08T00:38:26.204Z,0
2017-01-08T00:39:26.188Z,0
2017-01-08T00:40:26.161Z,0
2017-01-08T00:41:26.144Z,0
2017-01-08T00:42:26.124Z,0
2017-01-08T00:43:26.098Z,0
2017-01-08T00:44:26.076Z,0
2017-01-08T00:45:26.058Z,0
2017-01-08T00:46:26.034Z,0
2017-01-08T00:47:26.004Z,0
2017-01-08T00:48:25.987Z,0
2017-01-08T00:49:25.970Z,0
2017-01-08T00:50:25.939Z,0
2017-01-08T00:51:25.916Z,0
2017-01-08T00:52:26.291Z,0
2017-01-08T00:53:25.875Z,0
2017-01-08T00:54:25.848Z,0
2017-01-08T00:55:26.039Z,0
2017-01-08T00:56:25.813Z,0
2017-01-08T00:57:25.783Z,0
2017-01-08T00:58:26.170Z,0
2017-01-08T00:59:25.788Z,0
2017-01-08T01:00:25.715Z,0
2017-01-08T01:01:25.691Z,0
2017-01-08T01:02:25.671Z,0
2017-01-08T01:03:25.650Z,0
2017-01-08T01:04:26.031Z,0
2017-01-08T01:05:25.600Z,0
2017-01-08T01:06:25.680Z,0
2017-01-08T01:07:25.558Z,0
2017-01-08T01:08:25.946Z,0
2017-01-08T01:09:25.511Z,0
2017-01-08T01:10:25.512Z,0
2017-01-08T01:11:25.472Z,0
2017-01-08T01:12:25.863Z,0
2017-01-08T01:13:25.463Z,0
2017-01-08T01:14:25.406Z,0
2017-01-08T01:15:25.387Z,0
2017-01-08T01:16:25.363Z,0
2017-01-08T01:17:25.341Z,0
2017-01-08T01:18:25.320Z,0
2017-01-08T01:19:25.322Z,0
2017-01-08T01:20:25.260Z,0
2017-01-08T01:21:25.254Z,0
2017-01-08T01:22:25.232Z,0
2017-01-08T01:23:25.198Z,0
2017-01-08T01:24:25.595Z,0
2017-01-08T01:25:25.149Z,0
2017-01-08T01:26:25.169Z,0
2017-01-08T01:27:25.121Z,0
2017-01-08T01:28:25.083Z,0
2017-01-08T01:29:25.064Z,0
2017-01-08T01:30:25.044Z,0
2017-01-08T01:31:25.026Z,0
2017-01-08T01:32:25.395Z,0
2017-01-08T01:33:24.973Z,0
2017-01-08T01:34:24.951Z,0
2017-01-08T01:35:24.937Z,0
2017-01-08T01:36:24.909Z,0
2017-01-08T01:37:24.892Z,0
2017-01-08T01:38:24.862Z,0
2017-01-08T01:39:24.876Z,0
2017-01-08T01:40:24.821Z,0
2017-01-08T01:41:25.219Z,0
2017-01-08T01:42:25.175Z,0
2017-01-08T01:43:24.752Z,0
2017-01-08T01:44:24.732Z,0
2017-01-08T01:45:24.706Z,0
2017-01-08T01:46:24.681Z,0
2017-01-08T01:47:24.692Z,0
2017-01-08T01:48:24.658Z,0
2017-01-08T01:49:24.683Z,0
2017-01-08T01:50:24.597Z,0
2017-01-08T01:51:24.572Z,0
2017-01-08T01:52:24.637Z,0
2017-01-08T01:53:24.542Z,0
2017-01-08T01:54:24.526Z,0
2017-01-08T01:55:24.486Z,0
2017-01-08T01:56:24.457Z,0
2017-01-08T01:57:24.476Z,0
2017-01-08T01:58:24.439Z,0
2017-01-08T01:59:24.390Z,0
2017-01-08T02:00:24.772Z,0
2017-01-08T02:01:24.348Z,0
2017-01-08T02:02:24.336Z,0
2017-01-08T02:03:24.343Z,0
2017-01-08T02:04:24.287Z,0
2017-01-08T02:05:24.257Z,0
2017-01-08T02:06:24.669Z,0
2017-01-08T02:07:24.218Z,0
2017-01-08T02:08:24.245Z,0
2017-01-08T02:09:24.176Z,0
2017-01-08T02:10:24.155Z,0
2017-01-08T02:11:24.134Z,0
2017-01-08T02:12:24.105Z,0
2017-01-08T02:13:24.132Z,0
2017-01-08T02:14:24.075Z,0
2017-01-08T02:15:24.034Z,0
2017-01-08T02:16:24.022Z,0
2017-01-08T02:17:23.996Z,0
2017-01-08T02:18:24.400Z,0
2017-01-08T02:19:23.952Z,0
2017-01-08T02:20:23.931Z,0
2017-01-08T02:21:23.904Z,0
2017-01-08T02:22:23.884Z,0
2017-01-08T02:23:23.856Z,0
2017-01-08T02:24:23.842Z,0
2017-01-08T02:25:23.816Z,0
2017-01-08T02:26:23.796Z,0
2017-01-08T02:27:23.768Z,0
2017-01-08T02:28:23.750Z,0
2017-01-08T02:29:23.724Z,0
2017-01-08T02:30:23.705Z,0
2017-01-08T02:31:23.680Z,0
2017-01-08T02:32:23.668Z,0
2017-01-08T02:33:23.637Z,0
2017-01-08T02:34:23.640Z,0
2017-01-08T02:35:23.994Z,0
2017-01-08T02:36:23.567Z,0
2017-01-08T02:37:23.550Z,0
2017-01-08T02:38:23.533Z,0
2017-01-08T02:39:23.502Z,0
2017-01-08T02:40:23.485Z,0
2017-01-08T02:41:23.459Z,0
2017-01-08T02:42:23.440Z,0
2017-01-08T02:43:23.415Z,0
2017-01-08T02:44:23.444Z,0
2017-01-08T02:45:23.367Z,0
2017-01-08T02:46:23.351Z,0
2017-01-08T02:47:23.768Z,0
2017-01-08T02:48:23.301Z,0
2017-01-08T02:49:23.280Z,0
2017-01-08T02:50:23.260Z,0
2017-01-08T02:51:23.234Z,0
2017-01-08T02:52:23.209Z,0
2017-01-08T02:53:23.188Z,0
2017-01-08T02:54:23.171Z,0
2017-01-08T02:55:23.346Z,0
2017-01-08T02:56:23.127Z,0
2017-01-08T02:57:23.098Z,0
2017-01-08T02:58:23.077Z,0
2017-01-08T02:59:23.454Z,0
2017-01-08T03:00:23.030Z,0
2017-01-08T03:01:23.019Z,0
2017-01-08T03:02:22.998Z,0
2017-01-08T03:03:22.973Z,0
2017-01-08T03:04:22.947Z,0
2017-01-08T03:05:22.927Z,0
2017-01-08T03:06:22.902Z,0
2017-01-08T03:07:22.878Z,0
2017-01-08T03:08:22.909Z,0
2017-01-08T03:09:22.887Z,0
2017-01-08T03:10:22.812Z,0
2017-01-08T03:11:23.183Z,0
2017-01-08T03:12:22.772Z,0
2017-01-08T03:13:23.139Z,0
2017-01-08T03:14:23.121Z,0
2017-01-08T03:15:22.702Z,0
2017-01-08T03:16:22.677Z,0
2017-01-08T03:17:22.659Z,0
2017-01-08T03:18:22.636Z,0
2017-01-08T03:19:22.612Z,0
2017-01-08T03:20:22.584Z,0
2017-01-08T03:21:23.164Z,0
2017-01-08T03:22:22.600Z,0
2017-01-08T03:23:22.522Z,0
2017-01-08T03:24:22.505Z,0
2017-01-08T03:25:22.515Z,0
2017-01-08T03:26:22.474Z,0
2017-01-08T03:27:22.449Z,0
2017-01-08T03:28:22.415Z,0
2017-01-08T03:29:22.394Z,0
2017-01-08T03:30:22.367Z,0
2017-01-08T03:31:22.344Z,0
2017-01-08T03:32:22.377Z,0
2017-01-08T03:33:22.304Z,0
2017-01-08T03:34:22.286Z,0
2017-01-08T03:35:22.259Z,0
2017-01-08T03:36:22.239Z,0
2017-01-08T03:37:22.213Z,0
2017-01-08T03:38:22.190Z,0
2017-01-08T03:39:22.183Z,0
2017-01-08T03:40:22.146Z,0
2017-01-08T03:41:22.124Z,0
2017-01-08T03:42:22.101Z,0
2017-01-08T03:43:22.078Z,0
2017-01-08T03:44:22.057Z,0
2017-01-08T03:45:22.047Z,0
2017-01-08T03:46:22.022Z,0
2017-01-08T03:47:22.029Z,0
2017-01-08T03:48:21.973Z,0
2017-01-08T03:49:21.954Z,0
2017-01-08T03:50:21.930Z,0
2017-01-08T03:51:21.905Z,0
2017-01-08T03:52:21.939Z,0
2017-01-08T03:53:21.878Z,0
2017-01-08T03:54:21.832Z,0
2017-01-08T03:55:21.822Z,0
2017-01-08T03:56:21.793Z,0
2017-01-08T03:57:21.772Z,0
2017-01-08T03:58:21.754Z,0
2017-01-08T03:59:21.730Z,0
2017-01-08T04:00:21.709Z,0
2017-01-08T04:01:21.688Z,0
2017-01-08T04:02:21.668Z,0
2017-01-08T04:03:21.673Z,0
2017-01-08T04:04:21.640Z,0
2017-01-08T04:05:21.600Z,0
2017-01-08T04:06:21.579Z,0
2017-01-08T04:07:21.558Z,0
2017-01-08T04:08:21.535Z,0
2017-01-08T04:09:21.514Z,0
2017-01-08T04:10:21.517Z,0
2017-01-08T04:11:21.478Z,0
2017-01-08T04:12:21.447Z,0
2017-01-08T04:13:21.450Z,0
2017-01-08T04:14:21.407Z,0
2017-01-08T04:15:21.390Z,0
2017-01-08T04:16:21.352Z,0
2017-01-08T04:17:21.339Z,0
2017-01-08T04:18:21.316Z,0
2017-01-08T04:19:21.295Z,0
2017-01-08T04:20:21.293Z,0
2017-01-08T04:21:21.251Z,0
2017-01-08T04:22:21.246Z,0
2017-01-08T04:23:21.207Z,0
2017-01-08T04:24:21.190Z,0
2017-01-08T04:25:21.158Z,0
2017-01-08T04:26:21.139Z,0
2017-01-08T04:27:21.122Z,0
2017-01-08T04:28:21.101Z,0
2017-01-08T04:29:21.084Z,0
2017-01-08T04:30:21.052Z,0
2017-01-08T04:31:21.144Z,0
2017-01-08T04:32:21.017Z,0
2017-01-08T04:33:21.037Z,0
2017-01-08T04:34:21.366Z,0
2017-01-08T04:35:20.951Z,0
2017-01-08T04:36:20.930Z,0
2017-01-08T04:37:20.908Z,0
2017-01-08T04:38:20.885Z,0
2017-01-08T04:39:20.889Z,0
2017-01-08T04:40:20.841Z,0
2017-01-08T04:41:20.817Z,0
2017-01-08T04:42:20.847Z,0
2017-01-08T04:43:20.779Z,0
2017-01-08T04:44:20.762Z,0
2017-01-08T04:45:20.775Z,0
2017-01-08T04:46:20.716Z,0
2017-01-08T04:47:20.690Z,0
2017-01-08T04:48:20.721Z,0
2017-01-08T04:49:20.639Z,0
2017-01-08T04:50:20.626Z,0
2017-01-08T04:51:20.596Z,0
2017-01-08T04:52:20.578Z,0
2017-01-08T04:53:20.562Z,0
2017-01-08T04:54:20.998Z,0
2017-01-08T04:55:20.732Z,0
2017-01-08T04:56:20.505Z,0
2017-01-08T04:57:20.865Z,0
2017-01-08T04:58:20.504Z,0
2017-01-08T04:59:20.428Z,0
2017-01-08T05:00:20.402Z,0
2017-01-08T05:01:20.439Z,0
2017-01-08T05:02:20.358Z,0
2017-01-08T05:03:20.346Z,0
2017-01-08T05:04:20.321Z,0
2017-01-08T05:05:20.296Z,0
2017-01-08T05:06:20.277Z,0
2017-01-08T05:07:20.254Z,0
2017-01-08T05:08:20.229Z,0
2017-01-08T05:09:20.217Z,0
2017-01-08T05:10:20.191Z,0
2017-01-08T05:11:20.164Z,0
2017-01-08T05:12:20.146Z,0
2017-01-08T05:13:20.128Z,0
2017-01-08T05:14:20.103Z,0
2017-01-08T05:15:20.084Z,0
2017-01-08T05:16:20.052Z,0
2017-01-08T05:17:20.043Z,0
2017-01-08T05:18:20.018Z,0
2017-01-08T05:19:20.042Z,0
2017-01-08T05:20:19.965Z,0
2017-01-08T05:21:19.978Z,0
2017-01-08T05:22:19.924Z,0
2017-01-08T05:23:19.905Z,0
2017-01-08T05:24:19.887Z,0
2017-01-08T05:25:19.911Z,0
2017-01-08T05:26:19.855Z,0
2017-01-08T05:27:20.220Z,0
2017-01-08T05:28:19.808Z,0
2017-01-08T05:29:19.776Z,0
2017-01-08T05:30:19.756Z,0
2017-01-08T05:31:19.731Z,0
2017-01-08T05:32:19.709Z,0
2017-01-08T05:33:19.717Z,0
2017-01-08T05:34:20.059Z,0
2017-01-08T05:35:19.647Z,0
2017-01-08T05:36:19.623Z,0
2017-01-08T05:37:19.649Z,0
2017-01-08T05:38:19.611Z,0
2017-01-08T05:39:19.556Z,0
2017-01-08T05:40:19.536Z,0
2017-01-08T05:41:19.520Z,0
2017-01-08T05:42:19.541Z,0
2017-01-08T05:43:19.470Z,0
2017-01-08T05:44:19.455Z,0
2017-01-08T05:45:19.430Z,0
2017-01-08T05:46:19.407Z,0
2017-01-08T05:47:19.386Z,0
2017-01-08T05:48:19.363Z,0
2017-01-08T05:49:19.342Z,0
2017-01-08T05:50:19.325Z,0
2017-01-08T05:51:19.698Z,0
2017-01-08T05:52:19.281Z,0
2017-01-08T05:53:19.251Z,0
2017-01-08T05:54:19.628Z,0
2017-01-08T05:55:19.214Z,0
2017-01-08T05:56:19.209Z,0
2017-01-08T05:57:19.223Z,0
2017-01-08T05:58:19.141Z,0
2017-01-08T05:59:19.174Z,0
2017-01-08T06:00:19.099Z,0
2017-01-08T06:01:19.080Z,0
2017-01-08T06:02:19.508Z,0
2017-01-08T06:03:19.038Z,0
2017-01-08T06:04:19.064Z,0
2017-01-08T06:05:18.990Z,0
2017-01-08T06:06:18.974Z,0
2017-01-08T06:07:18.958Z,0
2017-01-08T06:08:18.924Z,0
2017-01-08T06:09:18.903Z,0
2017-01-08T06:10:18.886Z,0
2017-01-08T06:11:18.860Z,0
2017-01-08T06:12:18.847Z,0
2017-01-08T06:13:18.827Z,0
2017-01-08T06:14:18.804Z,0
2017-01-08T06:15:18.779Z,0
2017-01-08T06:16:18.758Z,0
2017-01-08T06:17:18.738Z,0
2017-01-08T06:18:18.720Z,0
2017-01-08T06:19:18.696Z,0
2017-01-08T06:20:18.669Z,0
2017-01-08T06:21:18.726Z,0
2017-01-08T06:22:18.648Z,0
2017-01-08T06:23:18.628Z,0
2017-01-08T06:24:18.598Z,0
2017-01-08T06:25:18.566Z,0
2017-01-08T06:26:18.540Z,0
2017-01-08T06:27:18.533Z,0
2017-01-08T06:28:18.495Z,0
2017-01-08T06:29:18.478Z,0
2017-01-08T06:30:18.459Z,0
2017-01-08T06:31:18.831Z,0
2017-01-08T06:32:18.413Z,0
2017-01-08T06:33:18.392Z,0
2017-01-08T06:34:18.381Z,0
2017-01-08T06:35:18.358Z,0
2017-01-08T06:36:18.339Z,0
2017-01-08T06:37:18.306Z,0
2017-01-08T06:38:18.321Z,0
2017-01-08T06:39:18.269Z,0
2017-01-08T06:40:18.264Z,0
2017-01-08T06:41:18.646Z,0
2017-01-08T06:42:18.604Z,0
2017-01-08T06:43:18.184Z,0
2017-01-08T06:44:18.157Z,0
2017-01-08T06:45:18.145Z,0
2017-01-08T06:46:18.112Z,0
2017-01-08T06:47:18.095Z,0
2017-01-08T06:48:18.069Z,0
2017-01-08T06:49:18.053Z,0
2017-01-08T06:50:18.027Z,0
2017-01-08T06:51:18.011Z,0
2017-01-08T06:52:17.990Z,0
2017-01-08T06:53:17.966Z,0
2017-01-08T06:54:17.943Z,0
2017-01-08T06:55:18.333Z,0
2017-01-08T06:56:17.905Z,0
2017-01-08T06:57:17.879Z,0
2017-01-08T06:58:17.862Z,0
2017-01-08T06:59:17.837Z,0
2017-01-08T07:00:18.219Z,0
2017-01-08T07:01:17.801Z,0
2017-01-08T07:02:17.780Z,0
2017-01-08T07:03:17.753Z,0
2017-01-08T07:04:17.737Z,0
2017-01-08T07:05:17.723Z,0
2017-01-08T07:06:17.692Z,0
2017-01-08T07:07:17.673Z,0
2017-01-08T07:08:17.670Z,0
2017-01-08T07:09:17.630Z,0
2017-01-08T07:10:17.999Z,0
2017-01-08T07:11:17.577Z,0
2017-01-08T07:12:17.562Z,0
2017-01-08T07:13:17.544Z,0
2017-01-08T07:14:17.516Z,0
2017-01-08T07:15:17.506Z,0
2017-01-08T07:16:17.475Z,0
2017-01-08T07:17:17.448Z,0
2017-01-08T07:18:17.431Z,0
2017-01-08T07:19:17.812Z,0
2017-01-08T07:20:17.390Z,0
2017-01-08T07:21:17.367Z,0
2017-01-08T07:22:17.346Z,0
2017-01-08T07:23:17.324Z,0
2017-01-08T07:24:17.304Z,0
2017-01-08T07:25:17.278Z,0
2017-01-08T07:26:17.261Z,0
2017-01-08T07:27:17.243Z,0
2017-01-08T07:28:17.216Z,0
2017-01-08T07:29:17.598Z,0
2017-01-08T07:30:17.176Z,0
2017-01-08T07:31:17.177Z,0
2017-01-08T07:32:17.128Z,0
2017-01-08T07:33:17.138Z,0
2017-01-08T07:34:17.092Z,0
2017-01-08T07:35:17.074Z,0
2017-01-08T07:36:17.043Z,5
2017-01-08T07:37:17.021Z,0
2017-01-08T07:38:17.011Z,5
2017-01-08T07:39:16.987Z,5
2017-01-08T07:40:16.963Z,5
2017-01-08T07:41:16.941Z,5
2017-01-08T07:42:16.921Z,5
2017-01-08T07:43:16.896Z,5
2017-01-08T07:44:16.873Z,5
2017-01-08T07:45:16.861Z,5
2017-01-08T07:46:16.885Z,5
2017-01-08T07:47:16.819Z,5
2017-01-08T07:48:16.788Z,5
2017-01-08T07:49:16.775Z,5
2017-01-08T07:50:16.751Z,10
2017-01-08T07:51:16.728Z,10
2017-01-08T07:52:16.722Z,10
2017-01-08T07:53:16.710Z,10
2017-01-08T07:54:17.074Z,5
2017-01-08T07:55:16.695Z,10
2017-01-08T07:56:16.681Z,10
2017-01-08T07:57:16.605Z,10
2017-01-08T07:58:16.595Z,10
2017-01-08T07:59:16.559Z,10
2017-01-08T08:00:16.543Z,10
2017-01-08T08:01:16.518Z,10
2017-01-08T08:02:16.492Z,10
2017-01-08T08:03:16.476Z,10
2017-01-08T08:04:16.453Z,10
2017-01-08T08:05:16.438Z,15
2017-01-08T08:06:16.461Z,15
2017-01-08T08:07:16.390Z,15
2017-01-08T08:08:16.381Z,15
2017-01-08T08:09:16.347Z,15
2017-01-08T08:10:16.330Z,15
2017-01-08T08:11:16.310Z,20
2017-01-08T08:12:16.282Z,15
2017-01-08T08:13:16.418Z,20
2017-01-08T08:14:16.244Z,15
2017-01-08T08:15:16.266Z,15
2017-01-08T08:16:16.203Z,15
2017-01-08T08:17:16.610Z,20
2017-01-08T08:18:16.161Z,20
2017-01-08T08:19:16.139Z,20
2017-01-08T08:20:16.169Z,20
2017-01-08T08:21:16.093Z,20
2017-01-08T08:22:16.069Z,20
2017-01-08T08:23:16.078Z,25
2017-01-08T08:24:16.040Z,25
2017-01-08T08:25:16.009Z,25
2017-01-08T08:26:16.000Z,20
2017-01-08T08:27:15.969Z,20
2017-01-08T08:28:15.954Z,25
2017-01-08T08:29:15.925Z,20
2017-01-08T08:30:15.901Z,25
2017-01-08T08:31:15.890Z,25
2017-01-08T08:32:15.860Z,30
2017-01-08T08:33:15.853Z,30
2017-01-08T08:34:15.833Z,25
2017-01-08T08:35:15.808Z,25
2017-01-08T08:36:15.835Z,30
2017-01-08T08:37:15.816Z,30
2017-01-08T08:38:15.742Z,25
2017-01-08T08:39:15.768Z,25
2017-01-08T08:40:15.855Z,30
2017-01-08T08:41:16.078Z,30
2017-01-08T08:42:15.654Z,35
2017-01-08T08:43:15.644Z,30
2017-01-08T08:44:15.629Z,30
2017-01-08T08:45:15.601Z,30
2017-01-08T08:46:15.570Z,30
2017-01-08T08:47:15.758Z,30
2017-01-08T08:48:15.525Z,30
2017-01-08T08:49:15.563Z,35
2017-01-08T08:50:15.497Z,35
2017-01-08T08:51:15.520Z,35
2017-01-08T08:52:15.453Z,35
2017-01-08T08:53:15.864Z,35
2017-01-08T08:54:15.411Z,35
2017-01-08T08:55:15.401Z,35
2017-01-08T08:56:15.633Z,35
2017-01-08T08:57:15.350Z,40
2017-01-08T08:58:15.330Z,45
2017-01-08T08:59:15.334Z,45
2017-01-08T09:00:15.290Z,45
2017-01-08T09:01:15.478Z,50
2017-01-08T09:02:15.249Z,55
2017-01-08T09:03:15.227Z,55
2017-01-08T09:04:15.208Z,55
2017-01-08T09:05:15.183Z,60
2017-01-08T09:06:15.200Z,60
2017-01-08T09:07:15.174Z,55
2017-01-08T09:08:15.125Z,55
2017-01-08T09:09:15.099Z,55
2017-01-08T09:10:15.112Z,55
2017-01-08T09:11:15.063Z,55
2017-01-08T09:12:15.035Z,55
2017-01-08T09:13:15.029Z,55
2017-01-08T09:14:15.001Z,55
2017-01-08T09:15:14.978Z,60
2017-01-08T09:16:14.960Z,60
2017-01-08T09:17:14.932Z,60
2017-01-08T09:18:14.913Z,55
2017-01-08T09:19:14.907Z,55
2017-01-08T09:20:14.928Z,60
2017-01-08T09:21:14.859Z,60
2017-01-08T09:22:14.839Z,55
2017-01-08T09:23:14.866Z,60
2017-01-08T09:24:14.796Z,55
2017-01-08T09:25:14.784Z,60
2017-01-08T09:26:14.794Z,60
2017-01-08T09:27:14.749Z,60
2017-01-08T09:28:14.714Z,60
2017-01-08T09:29:14.695Z,65
2017-01-08T09:30:14.736Z,70
2017-01-08T09:31:14.675Z,70
2017-01-08T09:32:14.646Z,70
2017-01-08T09:33:14.622Z,70
2017-01-08T09:34:14.595Z,65
2017-01-08T09:35:14.601Z,70
2017-01-08T09:36:14.553Z,70
2017-01-08T09:37:14.555Z,80
2017-01-08T09:38:14.520Z,75
2017-01-08T09:39:14.496Z,70
2017-01-08T09:40:14.481Z,60
2017-01-08T09:41:14.453Z,60
2017-01-08T09:42:14.436Z,70
2017-01-08T09:43:14.444Z,75
2017-01-08T09:44:14.399Z,75
2017-01-08T09:45:14.370Z,80
2017-01-08T09:46:14.367Z,75
2017-01-08T09:47:14.340Z,75
2017-01-08T09:48:14.318Z,75
2017-01-08T09:49:14.356Z,80
2017-01-08T09:50:14.277Z,75
2017-01-08T09:51:14.257Z,75
2017-01-08T09:52:14.629Z,70
2017-01-08T09:53:14.220Z,70
2017-01-08T09:54:14.202Z,70
2017-01-08T09:55:14.181Z,75
2017-01-08T09:56:14.173Z,75
2017-01-08T09:57:14.142Z,75
2017-01-08T09:58:14.174Z,65
2017-01-08T09:59:14.098Z,65
2017-01-08T10:00:14.080Z,70
2017-01-08T10:01:14.141Z,75
2017-01-08T10:02:14.037Z,70
2017-01-08T10:03:14.017Z,65
2017-01-08T10:04:14.039Z,65
2017-01-08T10:05:13.982Z,60
2017-01-08T10:06:13.956Z,60
2017-01-08T10:07:13.943Z,70
2017-01-08T10:08:13.934Z,75
2017-01-08T10:09:13.907Z,75
2017-01-08T10:10:13.891Z,70
2017-01-08T10:11:13.875Z,75
2017-01-08T10:12:13.851Z,75
2017-01-08T10:13:13.898Z,70
2017-01-08T10:14:13.804Z,70
2017-01-08T10:15:13.782Z,70
2017-01-08T10:16:13.763Z,70
2017-01-08T10:17:13.788Z,65
2017-01-08T10:18:13.720Z,65
2017-01-08T10:19:13.715Z,65
2017-01-08T10:20:14.089Z,65
2017-01-08T10:21:13.669Z,70
2017-01-08T10:22:13.658Z,65
2017-01-08T10:23:14.078Z,65
2017-01-08T10:24:13.655Z,60
2017-01-08T10:25:14.008Z,60
2017-01-08T10:26:13.593Z,60
2017-01-08T10:27:13.565Z,60
2017-01-08T10:28:13.537Z,60
2017-01-08T10:29:13.566Z,60
2017-01-08T10:30:13.496Z,60
2017-01-08T10:31:13.502Z,60
2017-01-08T10:32:13.459Z,65
2017-01-08T10:33:13.434Z,60
2017-01-08T10:34:13.412Z,60
2017-01-08T10:35:13.398Z,65
2017-01-08T10:36:13.408Z,70
2017-01-08T10:37:13.353Z,65
2017-01-08T10:38:13.338Z,65
2017-01-08T10:39:13.343Z,60
2017-01-08T10:40:13.301Z,65
2017-01-08T10:41:13.283Z,65
2017-01-08T10:42:13.256Z,70
2017-01-08T10:43:13.334Z,75
2017-01-08T10:44:13.227Z,75
2017-01-08T10:45:13.201Z,70
2017-01-08T10:46:13.187Z,65
2017-01-08T10:47:13.164Z,65
2017-01-08T10:48:13.379Z,65
2017-01-08T10:49:13.137Z,70
2017-01-08T10:50:13.103Z,70
2017-01-08T10:51:13.488Z,65
2017-01-08T10:52:13.060Z,65
2017-01-08T10:53:13.082Z,65
2017-01-08T10:54:13.034Z,60
2017-01-08T10:55:13.011Z,65
2017-01-08T10:56:13.196Z,70
2017-01-08T10:57:12.963Z,70
2017-01-08T10:58:12.958Z,70
2017-01-08T10:59:12.935Z,70
2017-01-08T11:00:12.918Z,75
2017-01-08T11:01:12.891Z,80
2017-01-08T11:02:12.875Z,80
2017-01-08T11:03:12.864Z,80
2017-01-08T11:04:12.839Z,85
2017-01-08T11:05:12.850Z,95
2017-01-08T11:06:12.797Z,95
2017-01-08T11:07:12.782Z,100
2017-01-08T11:08:12.758Z,110
2017-01-08T11:09:12.747Z,100
2017-01-08T11:10:13.128Z,95
2017-01-08T11:11:12.709Z,95
2017-01-08T11:12:12.680Z,100
2017-01-08T11:13:12.659Z,100
2017-01-08T11:14:12.680Z,95
2017-01-08T11:15:12.621Z,90
2017-01-08T11:16:12.663Z,90
2017-01-08T11:17:12.626Z,95
2017-01-08T11:18:12.571Z,90
2017-01-08T11:19:12.549Z,90
2017-01-08T11:20:12.526Z,90
2017-01-08T11:21:12.958Z,90
2017-01-08T11:22:12.492Z,85
2017-01-08T11:23:12.499Z,85
2017-01-08T11:24:12.455Z,100
2017-01-08T11:25:12.434Z,105
2017-01-08T11:26:12.416Z,105
2017-01-08T11:27:12.805Z,100
2017-01-08T11:28:12.381Z,100
2017-01-08T11:29:12.412Z,95
2017-01-08T11:30:12.340Z,95
2017-01-08T11:31:12.332Z,110
2017-01-08T11:32:12.312Z,155
2017-01-08T11:33:13.079Z,135
2017-01-08T11:34:12.268Z,110
2017-01-08T11:35:12.263Z,100
2017-01-08T11:36:12.629Z,100
2017-01-08T11:37:12.236Z,115
2017-01-08T11:38:12.231Z,115
2017-01-08T11:39:12.580Z,110
2017-01-08T11:40:12.157Z,110
2017-01-08T11:41:12.152Z,105
2017-01-08T11:42:12.116Z,120
2017-01-08T11:43:12.103Z,110
2017-01-08T11:44:12.082Z,110
2017-01-08T11:45:12.061Z,110
2017-01-08T11:46:12.042Z,100
2017-01-08T11:47:12.022Z,85
2017-01-08T11:48:12.007Z,85
2017-01-08T11:49:12.007Z,75
2017-01-08T11:50:12.021Z,70
2017-01-08T11:51:11.969Z,70
2017-01-08T11:52:11.935Z,60
2017-01-08T11:53:11.965Z,55
2017-01-08T11:54:11.897Z,55
2017-01-08T11:55:11.878Z,55
2017-01-08T11:56:11.910Z,60
2017-01-08T11:57:11.838Z,80
2017-01-08T11:58:11.823Z,85
2017-01-08T11:59:11.800Z,75
2017-01-08T12:00:11.784Z,90
2017-01-08T12:01:12.171Z,115
2017-01-08T12:02:11.760Z,120
2017-01-08T12:03:11.730Z,125
2017-01-08T12:04:11.709Z,125
2017-01-08T12:05:11.693Z,120
2017-01-08T12:06:11.727Z,110
2017-01-08T12:07:11.656Z,110
2017-01-08T12:08:11.634Z,100
2017-01-08T12:09:11.616Z,100
2017-01-08T12:10:11.600Z,95
2017-01-08T12:11:11.599Z,85
2017-01-08T12:12:11.553Z,80
2017-01-08T12:13:11.533Z,85
2017-01-08T12:14:11.545Z,85
2017-01-08T12:15:11.505Z,85
2017-01-08T12:16:11.483Z,90
2017-01-08T12:17:11.466Z,90
2017-01-08T12:18:11.450Z,85
2017-01-08T12:19:11.430Z,80
2017-01-08T12:20:11.408Z,75
2017-01-08T12:21:11.390Z,75
2017-01-08T12:22:11.375Z,65
2017-01-08T12:23:11.349Z,65
2017-01-08T12:24:11.336Z,60
2017-01-08T12:25:11.322Z,60
2017-01-08T12:26:11.299Z,65
2017-01-08T12:27:11.290Z,55
2017-01-08T12:28:11.260Z,55
2017-01-08T12:29:11.638Z,50
2017-01-08T12:30:11.222Z,50
2017-01-08T12:31:11.204Z,55
2017-01-08T12:32:11.230Z,60
2017-01-08T12:33:11.162Z,65
2017-01-08T12:34:11.145Z,70
2017-01-08T12:35:11.126Z,60
2017-01-08T12:36:11.115Z,55
2017-01-08T12:37:11.100Z,45
2017-01-08T12:38:11.069Z,45
2017-01-08T12:39:11.059Z,45
2017-01-08T12:40:11.032Z,40
2017-01-08T12:41:11.413Z,45
2017-01-08T12:42:10.997Z,45
2017-01-08T12:43:10.977Z,40
2017-01-08T12:44:10.961Z,45
2017-01-08T12:45:10.940Z,40
2017-01-08T12:46:10.970Z,40
2017-01-08T12:47:10.903Z,40
2017-01-08T12:48:10.881Z,35
2017-01-08T12:49:10.869Z,35
2017-01-08T12:50:10.844Z,35
2017-01-08T12:51:10.827Z,35
2017-01-08T12:52:11.599Z,40
2017-01-08T12:53:10.789Z,40
2017-01-08T12:54:10.760Z,40
2017-01-08T12:55:10.750Z,45
2017-01-08T12:56:10.933Z,50
2017-01-08T12:57:10.738Z,55
2017-01-08T12:58:10.745Z,60
2017-01-08T12:59:10.677Z,60
2017-01-08T13:00:10.666Z,60
2017-01-08T13:01:10.632Z,60
2017-01-08T13:02:11.095Z,65
2017-01-08T13:03:10.599Z,60
2017-01-08T13:04:10.572Z,60
2017-01-08T13:05:10.946Z,60
2017-01-08T13:06:10.541Z,60
2017-01-08T13:07:10.517Z,60
2017-01-08T13:08:10.893Z,60
2017-01-08T13:09:10.478Z,60
2017-01-08T13:10:10.856Z,65
2017-01-08T13:11:10.494Z,65
2017-01-08T13:12:10.434Z,70
2017-01-08T13:13:10.420Z,70
2017-01-08T13:14:10.388Z,70
2017-01-08T13:15:10.384Z,70
2017-01-08T13:16:10.761Z,70
2017-01-08T13:17:10.733Z,70
2017-01-08T13:18:10.326Z,70
2017-01-08T13:19:10.319Z,65
2017-01-08T13:20:11.083Z,65
2017-01-08T13:21:10.667Z,70
2017-01-08T13:22:10.643Z,75
2017-01-08T13:23:10.217Z,70
2017-01-08T13:24:10.193Z,70
2017-01-08T13:25:10.585Z,70
2017-01-08T13:26:10.160Z,70
2017-01-08T13:27:10.156Z,70
2017-01-08T13:28:10.123Z,75
2017-01-08T13:29:10.107Z,75
2017-01-08T13:30:10.088Z,75
2017-01-08T13:31:10.515Z,70
2017-01-08T13:32:10.059Z,70
2017-01-08T13:33:10.420Z,70
2017-01-08T13:34:10.410Z,70
2017-01-08T13:35:10.188Z,75
2017-01-08T13:36:09.995Z,75
2017-01-08T13:37:10.337Z,75
2017-01-08T13:38:09.961Z,80
2017-01-08T13:39:09.952Z,80
2017-01-08T13:40:10.097Z,75
2017-01-08T13:41:10.677Z,70
2017-01-08T13:42:09.870Z,65
2017-01-08T13:43:09.838Z,65
2017-01-08T13:44:09.834Z,70
2017-01-08T13:45:09.797Z,75
2017-01-08T13:46:09.800Z,75
2017-01-08T13:47:09.751Z,70
2017-01-08T13:48:09.750Z,70
2017-01-08T13:49:10.126Z,65
2017-01-08T13:50:10.097Z,65
2017-01-08T13:51:10.078Z,70
2017-01-08T13:52:09.677Z,70
2017-01-08T13:53:10.049Z,65
2017-01-08T13:54:09.631Z,65
2017-01-08T13:55:09.630Z,65
2017-01-08T13:56:09.590Z,65
2017-01-08T13:57:09.570Z,65
2017-01-08T13:58:09.556Z,65
2017-01-08T13:59:09.528Z,65
2017-01-08T14:00:09.509Z,65
2017-01-08T14:01:09.492Z,65
2017-01-08T14:02:09.489Z,60
2017-01-08T14:03:09.449Z,60
2017-01-08T14:04:09.433Z,65
2017-01-08T14:05:09.825Z,65
2017-01-08T14:06:09.409Z,60
2017-01-08T14:07:09.372Z,60
2017-01-08T14:08:09.750Z,60
2017-01-08T14:09:09.538Z,55
2017-01-08T14:10:09.314Z,55
2017-01-08T14:11:09.293Z,55
2017-01-08T14:12:09.705Z,50
2017-01-08T14:13:09.271Z,50
2017-01-08T14:14:09.242Z,50
2017-01-08T14:15:09.252Z,50
2017-01-08T14:16:09.435Z,50
2017-01-08T14:17:09.697Z,50
2017-01-08T14:18:09.185Z,45
2017-01-08T14:19:09.353Z,45
2017-01-08T14:20:09.124Z,45
2017-01-08T14:21:09.121Z,45
2017-01-08T14:22:09.495Z,40
2017-01-08T14:23:09.478Z,40
2017-01-08T14:24:09.053Z,40
2017-01-08T14:25:09.426Z,40
2017-01-08T14:26:09.004Z,40
2017-01-08T14:27:09.016Z,45
2017-01-08T14:28:09.370Z,45
2017-01-08T14:29:09.354Z,45
2017-01-08T14:30:08.943Z,45
2017-01-08T14:31:09.315Z,40